createdAt,value
2017-11-11T00:01:36.560Z,84.80
2017-11-11T00:04:05.399Z,85.50
2017-11-11T00:06:34.239Z,84.70
2017-11-11T00:09:02.948Z,84.80
2017-11-11T00:11:31.779Z,84.80
2017-11-11T00:14:00.620Z,84.90
2017-11-11T00:16:29.461Z,84.40
2017-11-11T00:18:58.291Z,83.90
2017-11-11T00:21:27.127Z,83.60
2017-11-11T00:23:55.975Z,83.00
2017-11-11T00:26:24.837Z,83.20
2017-11-11T00:28:54.449Z,82.70
2017-11-11T00:31:24.048Z,82.90
2017-11-11T00:33:53.660Z,83.00
2017-11-11T00:36:23.261Z,83.00
2017-11-11T00:38:52.092Z,82.90
2017-11-11T00:41:20.941Z,82.90
2017-11-11T00:43:49.800Z,82.90
2017-11-11T00:46:18.635Z,83.30
2017-11-11T00:48:48.236Z,83.50
2017-11-11T00:51:17.840Z,84.20
2017-11-11T00:53:46.692Z,83.70
2017-11-11T00:56:15.526Z,83.80
2017-11-11T00:58:45.139Z,84.20
2017-11-11T01:01:14.758Z,83.60
2017-11-11T01:03:43.596Z,83.60
2017-11-11T01:06:12.451Z,83.50
2017-11-11T01:08:41.288Z,83.40
2017-11-11T01:11:10.124Z,83.30
2017-11-11T01:13:38.974Z,83.30
2017-11-11T01:16:08.356Z,83.20
2017-11-11T01:18:38.134Z,83.30
2017-11-11T01:21:06.985Z,83.40
2017-11-11T01:23:35.823Z,83.70
2017-11-11T01:26:04.671Z,84.00
2017-11-11T01:28:33.503Z,84.20
2017-11-11T01:31:02.342Z,84.50
2017-11-11T01:33:31.174Z,84.60
2017-11-11T01:36:00.012Z,84.80
2017-11-11T01:38:28.871Z,85.10
2017-11-11T01:40:57.712Z,85.00
2017-11-11T01:43:26.567Z,85.00
2017-11-11T01:45:55.403Z,85.10
2017-11-11T01:48:24.254Z,85.00
2017-11-11T01:50:53.090Z,85.20
2017-11-11T01:53:21.919Z,85.10
2017-11-11T01:55:51.549Z,85.10
2017-11-11T01:58:20.391Z,85.10
2017-11-11T02:00:49.337Z,84.70
2017-11-11T02:03:17.883Z,84.70
2017-11-11T02:05:46.743Z,84.70
2017-11-11T02:08:15.460Z,84.60
2017-11-11T02:10:45.054Z,84.60
2017-11-11T02:13:14.691Z,84.70
2017-11-11T02:15:43.527Z,84.70
2017-11-11T02:18:12.402Z,84.70
2017-11-11T02:20:40.905Z,84.70
2017-11-11T02:23:09.114Z,84.70
2017-11-11T02:25:38.387Z,84.60
2017-11-11T02:28:06.572Z,84.60
2017-11-11T02:30:35.877Z,84.50
2017-11-11T02:33:05.519Z,85.10
2017-11-11T02:35:33.717Z,84.50
2017-11-11T02:38:02.600Z,84.60
2017-11-11T02:40:30.785Z,84.60
2017-11-11T02:42:59.650Z,84.60
2017-11-11T02:45:28.172Z,84.60
2017-11-11T02:47:57.028Z,84.40
2017-11-11T02:50:25.873Z,84.50
2017-11-11T02:52:55.497Z,84.40
2017-11-11T02:55:25.103Z,84.40
2017-11-11T02:57:54.705Z,84.10
2017-11-11T03:00:24.009Z,84.00
2017-11-11T03:02:53.620Z,83.90
2017-11-11T03:05:23.212Z,83.50
2017-11-11T03:07:52.067Z,83.50
2017-11-11T03:10:20.241Z,83.50
2017-11-11T03:12:49.077Z,83.40
2017-11-11T03:15:17.613Z,83.20
2017-11-11T03:17:46.475Z,83.10
2017-11-11T03:20:15.327Z,83.20
2017-11-11T03:22:44.259Z,83.20
2017-11-11T03:25:13.130Z,83.10
2017-11-11T03:27:42.752Z,83.20
2017-11-11T03:30:12.368Z,83.30
2017-11-11T03:32:41.213Z,83.30
2017-11-11T03:35:10.051Z,83.30
2017-11-11T03:37:38.910Z,83.10
2017-11-11T03:40:07.757Z,82.90
2017-11-11T03:42:36.601Z,82.60
2017-11-11T03:45:06.212Z,82.50
2017-11-11T03:47:35.807Z,82.40
2017-11-11T03:50:04.826Z,82.30
2017-11-11T03:52:34.414Z,82.20
2017-11-11T03:55:03.244Z,82.60
2017-11-11T03:57:32.096Z,82.20
2017-11-11T04:00:00.924Z,82.20
2017-11-11T04:02:29.769Z,82.20
2017-11-11T04:04:59.387Z,82.20
2017-11-11T04:07:28.813Z,81.70
2017-11-11T04:09:57.657Z,81.60
2017-11-11T04:12:25.820Z,81.40
2017-11-11T04:14:54.490Z,81.10
2017-11-11T04:17:23.157Z,81.00
2017-11-11T04:19:51.819Z,80.90
2017-11-11T04:22:21.536Z,81.00
2017-11-11T04:24:50.369Z,80.90
2017-11-11T04:27:19.242Z,80.90
2017-11-11T04:29:48.080Z,81.00
2017-11-11T04:32:16.916Z,80.90
2017-11-11T04:34:45.755Z,80.80
2017-11-11T04:37:14.602Z,80.60
2017-11-11T04:39:43.440Z,80.60
2017-11-11T04:42:12.276Z,80.30
2017-11-11T04:44:41.116Z,80.00
2017-11-11T04:47:09.960Z,79.80
2017-11-11T04:49:38.665Z,79.50
2017-11-11T04:52:07.332Z,79.50
2017-11-11T04:54:36.021Z,79.10
2017-11-11T04:57:04.723Z,78.80
2017-11-11T04:59:33.587Z,78.90
2017-11-11T05:02:02.434Z,78.80
2017-11-11T05:04:31.869Z,78.40
2017-11-11T05:07:01.507Z,78.30
2017-11-11T05:09:30.354Z,78.30
2017-11-11T05:11:59.039Z,78.00
2017-11-11T05:14:27.911Z,78.00
2017-11-11T05:16:56.568Z,77.90
2017-11-11T05:19:25.426Z,77.80
2017-11-11T05:21:55.031Z,78.00
2017-11-11T05:24:24.471Z,77.90
2017-11-11T05:26:53.308Z,77.90
2017-11-11T05:29:22.153Z,78.20
2017-11-11T05:31:50.989Z,78.30
2017-11-11T05:34:19.824Z,78.20
2017-11-11T05:36:48.508Z,78.30
2017-11-11T07:01:16.259Z,80.00
2017-11-11T07:03:45.285Z,80.00
2017-11-11T07:06:14.936Z,80.40
2017-11-11T07:08:43.787Z,80.70
2017-11-11T07:11:13.305Z,81.00
2017-11-11T07:13:42.159Z,80.90
2017-11-11T07:16:10.343Z,80.90
2017-11-11T07:18:39.189Z,80.90
2017-11-11T07:21:08.795Z,80.70
2017-11-11T07:23:38.402Z,80.40
2017-11-11T07:26:08.806Z,80.30
2017-11-11T07:28:38.468Z,80.20
2017-11-11T07:31:07.360Z,80.00
2017-11-11T07:33:36.195Z,79.80
2017-11-11T07:36:04.716Z,79.60
2017-11-11T07:38:34.318Z,79.40
2017-11-11T07:41:03.144Z,79.30
2017-11-11T07:43:32.461Z,79.00
2017-11-11T07:46:01.304Z,78.90
2017-11-11T07:48:30.921Z,78.70
2017-11-11T07:51:00.525Z,78.20
2017-11-11T07:53:30.140Z,77.70
2017-11-11T07:55:59.734Z,77.10
2017-11-11T07:58:29.344Z,76.40
2017-11-11T08:00:58.670Z,75.90
2017-11-11T08:03:27.512Z,75.90
2017-11-11T08:05:56.338Z,75.80
2017-11-11T08:08:25.941Z,75.50
2017-11-11T08:10:55.541Z,75.50
2017-11-11T08:13:24.971Z,75.30
2017-11-11T08:15:54.469Z,75.30
2017-11-11T08:18:23.899Z,75.30
2017-11-11T08:20:52.572Z,75.20
2017-11-11T08:23:21.253Z,75.50
2017-11-11T08:25:50.115Z,75.70
2017-11-11T08:28:19.235Z,75.00
2017-11-11T08:30:49.675Z,74.60
2017-11-11T08:33:18.544Z,74.60
2017-11-11T08:35:48.201Z,75.00
2017-11-11T08:38:17.060Z,74.90
2017-11-11T08:40:45.893Z,74.90
2017-11-11T08:43:14.548Z,74.40
2017-11-11T08:45:43.231Z,74.00
2017-11-11T08:48:12.076Z,73.70
2017-11-11T08:50:40.733Z,73.10
2017-11-11T08:53:09.574Z,72.70
2017-11-11T08:55:39.185Z,71.80
2017-11-11T08:58:08.977Z,70.90
2017-11-11T09:00:37.978Z,70.80
2017-11-11T09:03:06.815Z,70.70
2017-11-11T09:05:35.677Z,70.40
2017-11-11T09:08:04.269Z,70.30
2017-11-11T09:10:33.117Z,69.80
2017-11-11T09:13:02.800Z,69.40
2017-11-11T09:15:31.655Z,69.40
2017-11-11T09:18:00.525Z,68.90
2017-11-11T09:20:29.384Z,69.10
2017-11-11T09:22:58.067Z,69.70
2017-11-11T09:25:27.412Z,70.00
2017-11-11T09:27:57.035Z,69.90
2017-11-11T09:30:25.911Z,69.90
2017-11-11T09:32:55.608Z,70.20
2017-11-11T09:35:24.480Z,70.20
2017-11-11T09:37:53.339Z,70.30
2017-11-11T09:40:24.415Z,70.40
2017-11-11T09:42:53.299Z,69.90
2017-11-11T09:45:23.922Z,69.40
2017-11-11T09:47:52.768Z,69.40
2017-11-11T09:50:22.325Z,69.20
2017-11-11T09:52:51.166Z,68.60
2017-11-11T09:55:20.773Z,68.30
2017-11-11T09:57:50.387Z,68.40
2017-11-11T10:00:20.007Z,68.10
2017-11-11T10:02:48.856Z,68.10
2017-11-11T10:05:17.720Z,68.30
2017-11-11T10:07:46.562Z,68.40
2017-11-11T10:10:17.055Z,68.50
2017-11-11T10:12:45.610Z,68.40
2017-11-11T10:15:14.463Z,69.10
2017-11-11T10:17:44.832Z,68.50
2017-11-11T10:20:13.680Z,68.50
2017-11-11T10:22:43.284Z,67.90
2017-11-11T10:25:12.140Z,67.30
2017-11-11T10:27:40.646Z,67.00
2017-11-11T10:30:09.474Z,66.90
2017-11-11T10:32:38.311Z,66.50
2017-11-11T10:35:07.407Z,66.00
2017-11-11T10:37:35.932Z,66.00
2017-11-11T10:40:06.016Z,65.50
2017-11-11T10:42:34.884Z,65.40
2017-11-11T10:45:03.783Z,65.90
2017-11-11T10:47:32.628Z,66.80
2017-11-11T10:50:02.248Z,69.60
2017-11-11T10:52:30.428Z,69.60
2017-11-11T10:54:59.088Z,70.60
2017-11-11T10:57:28.565Z,71.90
2017-11-11T10:59:57.260Z,71.80
2017-11-11T11:02:25.941Z,72.80
2017-11-11T11:04:54.798Z,73.80
2017-11-11T11:07:23.475Z,74.20
2017-11-11T11:09:52.359Z,74.60
2017-11-11T11:12:21.200Z,75.60
2017-11-11T11:14:49.713Z,76.00
2017-11-11T11:17:19.308Z,76.60
2017-11-11T11:19:48.161Z,76.60
2017-11-11T11:22:16.991Z,77.00
2017-11-11T11:24:46.442Z,77.40
2017-11-11T11:27:15.108Z,77.40
2017-11-11T11:29:43.949Z,77.60
2017-11-11T11:32:12.812Z,78.20
2017-11-11T11:34:41.669Z,78.30
2017-11-11T11:37:11.108Z,78.50
2017-11-11T11:39:40.745Z,78.30
2017-11-11T11:42:09.584Z,78.20
2017-11-11T11:44:38.433Z,77.80
2017-11-11T11:47:07.280Z,78.20
2017-11-11T11:49:36.930Z,77.20
2017-11-11T11:52:05.779Z,75.90
2017-11-11T11:54:34.627Z,75.30
2017-11-11T11:57:04.243Z,74.40
2017-11-11T11:59:33.747Z,74.00
2017-11-11T12:02:02.590Z,74.20
2017-11-11T12:04:31.427Z,73.70
2017-11-11T12:07:00.345Z,73.00
2017-11-11T12:09:30.102Z,72.80
2017-11-11T12:11:59.458Z,72.00
2017-11-11T12:14:30.004Z,71.70
2017-11-11T12:17:00.839Z,71.60
2017-11-11T12:19:30.503Z,71.10
2017-11-11T12:22:00.280Z,71.20
2017-11-11T12:24:30.984Z,70.90
2017-11-11T12:27:01.008Z,70.20
2017-11-11T12:29:31.679Z,69.70
2017-11-11T12:32:01.272Z,69.40
2017-11-11T12:34:30.112Z,69.40
2017-11-11T12:36:59.731Z,69.00
2017-11-11T12:39:29.351Z,68.90
2017-11-11T12:41:59.990Z,68.90
2017-11-11T12:44:29.687Z,68.60
2017-11-11T12:46:59.389Z,68.60
2017-11-11T12:49:28.992Z,68.00
2017-11-11T12:51:58.604Z,67.90
2017-11-11T12:54:27.302Z,67.80
2017-11-11T12:56:55.988Z,67.60
2017-11-11T12:59:24.668Z,67.80
2017-11-11T13:01:54.293Z,66.90
2017-11-11T13:04:23.893Z,66.80
2017-11-11T13:06:53.500Z,66.40
2017-11-11T13:09:22.365Z,66.40
2017-11-11T13:11:51.268Z,66.10
2017-11-11T13:14:20.091Z,66.20
2017-11-11T13:16:48.939Z,66.20
2017-11-11T13:19:17.788Z,65.60
2017-11-11T13:21:46.628Z,65.30
2017-11-11T13:24:15.467Z,64.50
2017-11-11T13:26:44.309Z,64.70
2017-11-11T13:29:14.659Z,64.50
2017-11-11T13:31:43.515Z,64.00
2017-11-11T13:34:12.364Z,63.80
2017-11-11T13:36:43.565Z,63.60
2017-11-11T13:39:12.444Z,63.60
2017-11-11T13:41:41.290Z,63.20
2017-11-11T13:44:10.476Z,63.10
2017-11-11T13:46:39.139Z,63.20
2017-11-11T13:49:08.745Z,63.80
2017-11-11T13:51:38.370Z,64.00
2017-11-11T13:54:07.212Z,63.90
2017-11-11T13:56:36.068Z,64.10
2017-11-11T13:59:04.912Z,64.40
2017-11-11T14:01:33.576Z,64.60
2017-11-11T14:04:02.407Z,64.90
2017-11-11T14:06:32.028Z,65.40
2017-11-11T14:09:00.908Z,65.30
2017-11-11T14:11:31.708Z,65.40
2017-11-11T14:14:00.531Z,65.80
2017-11-11T14:16:30.136Z,66.50
2017-11-11T14:18:58.964Z,66.60
2017-11-11T14:21:27.799Z,66.90
2017-11-11T14:23:56.641Z,67.20
2017-11-11T14:26:25.537Z,67.40
2017-11-11T14:28:54.372Z,67.80
2017-11-11T14:31:23.211Z,68.00
2017-11-11T14:33:52.961Z,68.30
2017-11-11T14:36:21.797Z,68.50
2017-11-11T14:38:51.933Z,68.80
2017-11-11T14:41:20.787Z,69.00
2017-11-11T14:43:50.519Z,69.10
2017-11-11T14:46:20.935Z,69.20
2017-11-11T14:48:50.568Z,69.30
2017-11-11T14:51:19.731Z,69.30
2017-11-11T14:53:48.569Z,69.40
2017-11-11T14:56:17.395Z,69.50
2017-11-11T14:58:46.239Z,69.60
2017-11-11T15:01:15.089Z,69.70
2017-11-11T15:03:43.926Z,70.40
2017-11-11T15:06:12.904Z,69.80
2017-11-11T15:08:42.516Z,69.60
2017-11-11T15:11:11.380Z,69.60
2017-11-11T15:13:40.877Z,69.60
2017-11-11T15:16:10.344Z,69.50
2017-11-11T15:18:39.038Z,69.50
2017-11-11T15:21:07.736Z,69.60
2017-11-11T15:23:36.407Z,69.60
2017-11-11T15:26:05.267Z,69.70
2017-11-11T15:28:34.101Z,69.80
2017-11-11T15:31:02.780Z,69.80
2017-11-11T15:33:31.610Z,70.00
2017-11-11T15:36:00.466Z,70.00
2017-11-11T15:38:30.323Z,70.10
2017-11-11T15:40:59.945Z,70.10
2017-11-11T15:43:29.380Z,70.10
2017-11-11T15:45:58.233Z,70.20
2017-11-11T15:48:27.839Z,70.60
2017-11-11T15:50:57.847Z,70.80
2017-11-11T15:53:27.456Z,70.90
2017-11-11T15:55:56.920Z,70.80
2017-11-11T15:58:25.768Z,70.80
2017-11-11T16:00:54.461Z,70.80
2017-11-11T16:03:23.114Z,70.90
2017-11-11T16:05:51.792Z,71.10
2017-11-11T16:08:20.455Z,71.20
2017-11-11T16:10:49.119Z,71.10
2017-11-11T16:13:17.819Z,71.20
2017-11-11T16:15:47.264Z,71.20
2017-11-11T16:18:16.096Z,71.90
2017-11-11T16:20:44.935Z,71.30
2017-11-11T16:23:14.690Z,71.40
2017-11-11T16:25:44.297Z,71.60
2017-11-11T16:28:13.124Z,71.50
2017-11-11T16:30:41.981Z,72.30
2017-11-11T16:33:10.830Z,71.90
2017-11-11T16:35:39.672Z,71.90
2017-11-11T16:38:08.707Z,72.20
2017-11-11T16:40:37.535Z,72.50
2017-11-11T16:43:06.378Z,72.70
2017-11-11T16:45:37.092Z,73.00
2017-11-11T16:48:05.922Z,73.20
2017-11-11T16:50:34.759Z,73.40
2017-11-11T16:53:03.282Z,73.80
2017-11-11T16:55:32.132Z,73.90
2017-11-11T16:58:00.979Z,74.10
2017-11-11T17:00:29.507Z,74.40
2017-11-11T17:02:58.356Z,74.60
2017-11-11T17:05:27.987Z,75.00
2017-11-11T17:07:57.602Z,75.10
2017-11-11T17:10:27.208Z,75.30
2017-11-11T17:12:56.828Z,75.40
2017-11-11T17:15:25.716Z,75.40
2017-11-11T17:17:54.560Z,75.50
2017-11-11T17:20:23.413Z,75.90
2017-11-11T17:22:52.255Z,76.70
2017-11-11T17:25:21.108Z,76.20
2017-11-11T17:27:50.751Z,76.70
2017-11-11T17:30:19.624Z,76.40
2017-11-11T17:32:48.483Z,76.60
2017-11-11T17:35:17.337Z,77.00
2017-11-11T17:37:46.255Z,76.90
2017-11-11T17:40:15.099Z,77.00
2017-11-11T17:42:43.951Z,77.30
2017-11-11T17:45:12.622Z,77.40
2017-11-11T17:47:41.291Z,77.50
2017-11-11T17:50:10.891Z,78.00
2017-11-11T17:52:40.513Z,78.50
2017-11-11T17:55:09.948Z,78.30
2017-11-11T17:57:38.804Z,78.30
2017-11-11T18:00:08.241Z,78.50
2017-11-11T18:02:36.760Z,78.40
2017-11-11T18:05:05.615Z,78.50
2017-11-11T18:07:34.454Z,78.60
2017-11-11T18:10:03.302Z,78.70
2017-11-11T18:12:32.143Z,78.80
2017-11-11T18:15:01.756Z,79.20
2017-11-11T18:17:30.642Z,79.10
2017-11-11T18:20:00.328Z,79.40
2017-11-11T18:22:29.201Z,79.80
2017-11-11T18:24:58.727Z,79.70
2017-11-11T18:27:27.584Z,79.70
2017-11-11T18:29:56.463Z,80.00
2017-11-11T18:32:25.149Z,80.10
2017-11-11T18:34:54.905Z,80.20
2017-11-11T18:37:23.757Z,80.20
2017-11-11T18:39:52.620Z,80.50
2017-11-11T18:42:23.056Z,80.60
2017-11-11T18:44:52.667Z,80.70
2017-11-11T18:47:22.282Z,81.00
2017-11-11T18:49:51.285Z,81.00
2017-11-11T18:52:20.131Z,81.10
2017-11-11T18:54:48.970Z,81.10
2017-11-11T18:57:17.830Z,81.20
2017-11-11T18:59:46.677Z,81.20
2017-11-11T19:02:15.515Z,81.10
2017-11-11T19:04:44.904Z,81.20
2017-11-11T19:07:13.575Z,81.20
2017-11-11T19:09:42.433Z,81.10
2017-11-11T19:12:11.272Z,81.10
2017-11-11T19:14:40.112Z,81.30
2017-11-11T19:17:08.947Z,81.40
2017-11-11T19:19:37.791Z,81.40
2017-11-11T19:22:06.645Z,81.40
2017-11-11T19:24:36.145Z,81.50
2017-11-11T19:27:04.981Z,82.20
2017-11-11T19:29:33.823Z,81.60
2017-11-11T19:32:02.666Z,81.60
2017-11-11T19:34:31.512Z,81.50
2017-11-11T19:37:00.345Z,81.80
2017-11-11T19:39:30.127Z,81.90
2017-11-11T19:41:58.972Z,81.80
2017-11-11T19:44:28.752Z,82.00
2017-11-11T19:46:57.604Z,81.90
2017-11-11T19:49:27.420Z,82.20
2017-11-11T19:51:57.035Z,81.50
2017-11-11T19:54:26.115Z,82.00
2017-11-11T19:56:54.955Z,81.90
2017-11-11T19:59:23.800Z,81.90
2017-11-11T20:01:52.637Z,82.10
2017-11-11T20:04:21.497Z,82.00
2017-11-11T20:06:51.130Z,82.00
2017-11-11T20:09:19.972Z,82.00
2017-11-11T20:11:49.062Z,81.90
2017-11-11T20:14:17.929Z,82.10
2017-11-11T20:16:46.760Z,82.20
2017-11-11T20:19:15.844Z,82.40
2017-11-11T20:21:44.779Z,82.40
2017-11-11T20:24:13.612Z,82.60
2017-11-11T20:26:43.383Z,82.70
2017-11-11T20:29:12.808Z,82.90
2017-11-11T20:31:41.641Z,82.80
2017-11-11T20:34:10.477Z,83.10
2017-11-11T20:36:39.325Z,83.30
2017-11-11T20:39:08.171Z,83.40
2017-11-11T20:41:37.800Z,83.70
2017-11-11T20:44:06.486Z,84.00
2017-11-11T20:46:35.168Z,84.30
2017-11-11T20:49:03.872Z,84.10
2017-11-11T20:51:32.708Z,84.30
2017-11-11T20:54:01.545Z,84.30
2017-11-11T20:56:30.397Z,84.30
2017-11-11T20:58:59.259Z,84.40
2017-11-11T21:01:28.862Z,84.30
2017-11-11T21:03:58.387Z,84.30
2017-11-11T21:06:27.993Z,84.70
2017-11-11T21:08:58.055Z,84.80
2017-11-11T21:11:26.881Z,84.90
2017-11-11T21:13:56.408Z,85.10
2017-11-11T21:16:25.263Z,85.10
2017-11-11T21:18:55.068Z,85.10
2017-11-11T21:21:47.380Z,85.50
2017-11-11T21:24:17.610Z,85.80
2017-11-11T21:26:46.448Z,86.50
2017-11-11T21:29:15.146Z,87.00
2017-11-11T21:31:43.931Z,87.50
2017-11-11T21:34:12.601Z,87.50
2017-11-11T21:36:41.436Z,87.90
2017-11-11T21:39:11.968Z,88.30
2017-11-11T21:41:40.787Z,88.10
2017-11-11T21:44:09.619Z,88.10
2017-11-11T21:46:39.250Z,88.00
2017-11-11T21:49:08.083Z,88.00
2017-11-11T21:51:36.920Z,88.60
2017-11-11T21:54:06.373Z,88.70
2017-11-11T21:56:35.218Z,88.70
2017-11-11T21:59:04.817Z,88.60
2017-11-11T22:01:34.447Z,88.60
2017-11-11T22:04:03.285Z,88.60
2017-11-11T22:06:32.127Z,88.20
2017-11-11T22:09:01.842Z,88.00
2017-11-11T22:11:30.718Z,87.50
2017-11-11T22:13:59.796Z,87.40
2017-11-11T22:16:28.630Z,87.30
2017-11-11T22:18:57.486Z,87.30
2017-11-11T22:21:27.102Z,87.30
2017-11-11T22:23:56.711Z,87.60
2017-11-11T22:26:26.367Z,87.50
2017-11-11T22:28:56.984Z,87.40
2017-11-11T22:31:25.831Z,87.60
2017-11-11T22:33:54.686Z,87.60
2017-11-11T22:36:23.517Z,87.70
2017-11-11T22:38:53.110Z,88.40
2017-11-11T22:41:22.552Z,87.80
2017-11-11T22:43:51.820Z,87.70
2017-11-11T22:46:22.602Z,87.80
2017-11-11T22:48:51.436Z,87.70
2017-11-11T22:51:20.540Z,88.20
2017-11-11T22:53:50.878Z,87.70
2017-11-11T22:56:20.480Z,88.00
2017-11-11T22:58:49.319Z,88.00
2017-11-11T23:01:18.168Z,87.70
2017-11-11T23:03:47.764Z,87.70
2017-11-11T23:06:16.607Z,87.60
2017-11-11T23:08:45.437Z,87.50
2017-11-11T23:11:14.371Z,87.60
2017-11-11T23:13:43.219Z,87.80
2017-11-11T23:16:12.112Z,87.70
2017-11-11T23:18:40.966Z,87.70
2017-11-11T23:21:09.650Z,87.70
2017-11-11T23:23:38.484Z,87.60
2017-11-11T23:26:08.238Z,87.70
2017-11-11T23:28:37.129Z,87.70
2017-11-11T23:31:09.600Z,87.40
2017-11-11T23:33:39.692Z,87.50
2017-11-11T23:36:09.430Z,87.40
2017-11-11T23:38:38.278Z,87.20
2017-11-11T23:41:07.125Z,87.40
2017-11-11T23:43:35.973Z,87.50
2017-11-11T23:46:04.825Z,87.70
2017-11-11T23:48:33.662Z,87.60
2017-11-11T23:51:03.097Z,87.40
2017-11-11T23:53:31.928Z,87.30
2017-11-11T23:56:00.759Z,87.50
2017-11-11T23:58:30.195Z,87.70
